createdAt,value
2017-12-14T00:02:26.676Z,11.20
2017-12-14T00:04:54.362Z,5.93
2017-12-14T00:07:21.925Z,9.90
2017-12-14T00:09:50.042Z,8.63
2017-12-14T00:12:18.356Z,6.97
2017-12-14T00:14:45.965Z,10.40
2017-12-14T00:17:14.293Z,6.87
2017-12-14T00:19:41.878Z,8.77
2017-12-14T00:22:09.462Z,8.00
2017-12-14T00:24:36.538Z,3.80
2017-12-14T00:27:04.102Z,5.17
2017-12-14T00:29:31.661Z,5.20
2017-12-14T00:31:59.228Z,8.60
2017-12-14T00:34:26.800Z,7.23
2017-12-14T00:36:54.358Z,8.30
2017-12-14T00:39:21.965Z,9.30
2017-12-14T00:41:49.533Z,8.90
2017-12-14T00:44:17.112Z,10.20
2017-12-14T00:46:45.441Z,8.87
2017-12-14T00:49:12.997Z,13.10
2017-12-14T00:51:40.570Z,9.60
2017-12-14T00:54:08.169Z,11.83
2017-12-14T00:56:36.514Z,9.03
2017-12-14T00:59:04.127Z,8.27
2017-12-14T01:01:32.469Z,7.10
2017-12-14T01:04:00.047Z,10.63
2017-12-14T01:06:28.126Z,7.97
2017-12-14T01:08:56.436Z,6.03
2017-12-14T01:11:24.076Z,9.93
2017-12-14T01:13:51.660Z,8.20
2017-12-14T01:16:19.231Z,10.13
2017-12-14T01:18:46.776Z,8.67
2017-12-14T01:21:14.396Z,8.47
2017-12-14T01:23:41.945Z,5.53
2017-12-14T01:26:09.499Z,7.60
2017-12-14T01:28:37.069Z,6.83
2017-12-14T01:31:04.648Z,4.77
2017-12-14T01:33:32.973Z,8.10
2017-12-14T01:36:00.586Z,10.33
2017-12-14T01:38:28.923Z,11.20
2017-12-14T01:40:56.478Z,7.13
2017-12-14T01:43:24.040Z,8.13
2017-12-14T01:45:51.624Z,5.77
2017-12-14T01:48:19.178Z,6.43
2017-12-14T01:50:46.770Z,8.30
2017-12-14T01:53:14.309Z,4.60
2017-12-14T01:55:41.865Z,9.37
2017-12-14T01:58:09.450Z,13.80
2017-12-14T02:00:36.970Z,8.30
2017-12-14T02:03:04.539Z,7.17
2017-12-14T02:05:32.857Z,5.73
2017-12-14T02:08:01.198Z,8.97
2017-12-14T02:10:28.757Z,7.73
2017-12-14T02:12:56.322Z,7.10
2017-12-14T02:15:23.949Z,10.03
2017-12-14T02:17:51.539Z,7.53
2017-12-14T02:20:19.090Z,5.23
2017-12-14T02:22:46.661Z,3.57
2017-12-14T02:25:14.231Z,13.97
2017-12-14T02:27:41.793Z,5.80
2017-12-14T02:30:09.363Z,6.90
2017-12-14T02:32:36.917Z,10.70
2017-12-14T02:35:04.486Z,4.47
2017-12-14T02:37:32.812Z,14.67
2017-12-14T02:40:00.411Z,8.23
2017-12-14T02:42:27.961Z,6.50
2017-12-14T02:44:55.536Z,11.10
2017-12-14T02:47:23.109Z,18.67
2017-12-14T02:49:50.734Z,5.87
2017-12-14T02:52:18.303Z,10.00
2017-12-14T02:54:45.866Z,11.17
2017-12-14T02:57:13.443Z,5.53
2017-12-14T02:59:41.000Z,8.87
2017-12-14T03:02:08.580Z,13.77
2017-12-14T03:04:36.896Z,11.67
2017-12-14T03:07:04.504Z,13.10
2017-12-14T03:09:32.065Z,17.53
2017-12-14T03:11:59.626Z,10.83
2017-12-14T03:14:27.178Z,8.67
2017-12-14T03:16:54.747Z,11.30
2017-12-14T03:19:22.297Z,8.63
2017-12-14T03:21:49.876Z,9.47
2017-12-14T03:24:17.435Z,12.43
2017-12-14T03:26:45.749Z,9.70
2017-12-14T03:29:13.354Z,12.93
2017-12-14T03:31:40.945Z,16.73
2017-12-14T03:34:09.285Z,13.50
2017-12-14T03:36:36.845Z,10.40
2017-12-14T03:39:04.410Z,13.20
2017-12-14T03:41:32.000Z,6.10
2017-12-14T03:43:59.561Z,7.20
2017-12-14T03:46:27.932Z,9.13
2017-12-14T03:48:55.477Z,4.37
2017-12-14T03:51:23.033Z,10.10
2017-12-14T03:53:50.628Z,12.00
2017-12-14T03:56:18.953Z,7.13
2017-12-14T03:58:46.510Z,7.60
2017-12-14T04:01:14.919Z,8.30
2017-12-14T04:03:42.493Z,5.43
2017-12-14T04:06:10.086Z,9.53
2017-12-14T04:08:40.433Z,9.10
2017-12-14T04:11:08.000Z,4.93
2017-12-14T04:13:35.539Z,4.70
2017-12-14T04:16:03.094Z,4.07
2017-12-14T04:18:30.673Z,3.13
2017-12-14T04:20:58.896Z,2.57
2017-12-14T04:23:26.706Z,1.43
2017-12-14T04:25:54.280Z,2.67
2017-12-14T04:28:22.056Z,4.50
2017-12-14T04:30:49.639Z,3.20
2017-12-14T04:33:17.514Z,3.37
2017-12-14T04:35:45.058Z,2.27
2017-12-14T04:38:12.637Z,2.40
2017-12-14T04:40:40.229Z,2.50
2017-12-14T04:43:07.795Z,2.27
2017-12-14T04:45:35.362Z,2.00
2017-12-14T04:48:02.958Z,1.67
2017-12-14T04:50:30.500Z,3.43
2017-12-14T04:52:58.233Z,3.40
2017-12-14T04:55:26.565Z,2.07
2017-12-14T04:57:54.160Z,3.17
2017-12-14T05:00:22.471Z,2.37
2017-12-14T05:02:50.085Z,3.03
2017-12-14T05:05:17.652Z,1.47
2017-12-14T05:07:45.210Z,4.33
2017-12-14T05:10:12.786Z,3.37
2017-12-14T05:12:41.403Z,6.20
2017-12-14T05:15:08.985Z,6.67
2017-12-14T05:17:36.562Z,4.63
2017-12-14T05:20:04.567Z,5.00
2017-12-14T05:22:32.859Z,4.77
2017-12-14T05:25:00.408Z,4.80
2017-12-14T05:27:28.739Z,6.87
2017-12-14T05:29:56.334Z,6.50
2017-12-14T05:32:25.528Z,4.93
2017-12-14T05:34:53.874Z,4.97
2017-12-14T05:37:21.434Z,4.53
2017-12-14T05:39:49.363Z,5.60
2017-12-14T05:42:17.681Z,2.17
2017-12-14T05:44:45.258Z,2.00
2017-12-14T05:47:12.833Z,3.97
2017-12-14T05:49:40.385Z,4.27
2017-12-14T05:52:07.962Z,3.07
2017-12-14T05:54:36.302Z,4.67
2017-12-14T05:57:03.840Z,9.00
2017-12-14T05:59:32.248Z,3.33
2017-12-14T06:01:59.791Z,4.00
2017-12-14T06:04:27.378Z,2.73
2017-12-14T06:06:54.936Z,2.30
2017-12-14T06:09:22.507Z,1.80
2017-12-14T06:11:50.702Z,3.03
2017-12-14T06:14:19.037Z,2.10
2017-12-14T06:16:46.622Z,3.43
2017-12-14T06:19:15.039Z,2.67
2017-12-14T06:21:42.655Z,4.73
2017-12-14T06:24:10.197Z,4.83
2017-12-14T06:26:37.768Z,2.07
2017-12-14T06:29:05.326Z,4.70
2017-12-14T06:31:32.906Z,4.60
2017-12-14T06:34:00.465Z,4.20
2017-12-14T06:36:28.036Z,3.80
2017-12-14T06:38:56.436Z,4.00
2017-12-14T06:41:24.774Z,15.87
2017-12-14T06:43:52.702Z,7.73
2017-12-14T06:46:20.602Z,3.43
2017-12-14T06:48:48.164Z,3.57
2017-12-14T06:51:15.774Z,11.37
2017-12-14T06:53:44.082Z,7.37
2017-12-14T06:56:11.626Z,8.07
2017-12-14T06:58:39.182Z,6.23
2017-12-14T07:01:06.801Z,9.17
2017-12-14T07:03:34.384Z,7.00
2017-12-14T07:06:03.401Z,6.53
2017-12-14T07:08:30.982Z,11.80
2017-12-14T07:10:58.526Z,9.17
2017-12-14T07:13:26.859Z,13.70
2017-12-14T07:15:55.147Z,10.13
2017-12-14T07:18:22.703Z,10.00
2017-12-14T07:20:50.254Z,10.27
2017-12-14T07:23:17.812Z,16.07
2017-12-14T07:25:45.441Z,14.13
2017-12-14T07:28:12.997Z,9.50
2017-12-14T07:30:40.542Z,12.60
2017-12-14T07:33:08.099Z,10.43
2017-12-14T07:35:35.658Z,9.77
2017-12-14T07:38:03.214Z,6.00
2017-12-14T07:40:30.910Z,10.70
2017-12-14T07:43:04.809Z,13.73
2017-12-14T07:46:02.865Z,17.33
2017-12-14T07:48:30.418Z,12.33
2017-12-14T07:50:58.772Z,8.57
2017-12-14T07:53:26.377Z,15.67
2017-12-14T07:55:53.935Z,21.73
2017-12-14T07:58:21.511Z,18.58
2017-12-14T08:00:49.094Z,15.27
2017-12-14T08:03:16.654Z,16.87
2017-12-14T08:05:44.211Z,7.03
2017-12-14T08:08:11.754Z,11.03
2017-12-14T08:10:39.310Z,9.83
2017-12-14T08:13:06.878Z,12.50
2017-12-14T08:15:34.431Z,9.33
2017-12-14T08:18:02.009Z,12.10
2017-12-14T08:20:29.619Z,14.60
2017-12-14T08:22:57.954Z,5.00
2017-12-14T08:25:25.554Z,15.43
2017-12-14T08:27:53.913Z,10.13
2017-12-14T08:30:21.492Z,5.57
2017-12-14T08:32:49.052Z,20.03
2017-12-14T08:35:17.365Z,10.30
2017-12-14T08:37:44.944Z,10.63
2017-12-14T08:40:12.562Z,8.60
2017-12-14T08:42:40.893Z,4.90
2017-12-14T08:45:08.446Z,8.00
2017-12-14T08:47:36.001Z,5.10
2017-12-14T08:50:03.554Z,5.90
2017-12-14T08:52:31.123Z,8.30
2017-12-14T08:54:58.721Z,8.00
2017-12-14T08:57:26.281Z,13.43
2017-12-14T08:59:53.843Z,13.27
2017-12-14T09:02:21.394Z,4.30
2017-12-14T09:04:48.941Z,5.57
2017-12-14T09:07:16.509Z,7.90
2017-12-14T09:09:44.084Z,6.03
2017-12-14T09:12:11.667Z,7.03
2017-12-14T09:14:39.973Z,7.40
2017-12-14T09:17:07.537Z,7.47
2017-12-14T09:19:35.086Z,9.97
2017-12-14T09:22:02.704Z,12.53
2017-12-14T09:24:30.268Z,5.37
2017-12-14T09:26:57.813Z,2.60
2017-12-14T09:29:26.139Z,3.23
2017-12-14T09:31:53.713Z,10.80
2017-12-14T09:34:21.305Z,6.13
2017-12-14T09:36:52.948Z,5.63
2017-12-14T09:39:21.825Z,3.23
2017-12-14T09:41:49.407Z,11.03
2017-12-14T09:44:17.048Z,14.70
2017-12-14T09:46:44.602Z,11.93
2017-12-14T09:49:12.341Z,9.30
2017-12-14T09:51:40.655Z,12.87
2017-12-14T09:54:08.218Z,9.73
2017-12-14T09:56:36.297Z,8.27
2017-12-14T09:59:05.007Z,9.33
2017-12-14T10:01:32.575Z,14.50
2017-12-14T10:04:00.191Z,4.67
2017-12-14T10:06:27.793Z,5.57
2017-12-14T10:08:55.357Z,4.77
2017-12-14T10:11:22.915Z,7.20
2017-12-14T10:13:50.451Z,9.63
2017-12-14T10:16:18.847Z,11.10
2017-12-14T10:18:47.961Z,9.47
2017-12-14T10:27:03.350Z,13.63
2017-12-14T10:29:30.943Z,14.43
2017-12-14T10:31:58.530Z,13.30
2017-12-14T10:34:26.081Z,14.73
2017-12-14T10:36:54.434Z,16.00
2017-12-14T10:39:22.081Z,13.47
2017-12-14T10:41:49.774Z,16.97
2017-12-14T10:44:17.312Z,11.43
2017-12-14T10:46:44.876Z,15.93
2017-12-14T10:49:12.425Z,9.83
2017-12-14T10:51:39.990Z,12.30
2017-12-14T10:54:07.646Z,15.53
2017-12-14T10:56:35.241Z,14.70
2017-12-14T10:59:02.792Z,8.37
2017-12-14T11:01:30.337Z,14.63
2017-12-14T11:03:57.972Z,13.23
2017-12-14T11:06:25.556Z,7.10
2017-12-14T11:08:53.121Z,4.93
2017-12-14T11:11:20.709Z,3.37
2017-12-14T11:13:49.068Z,6.27
2017-12-14T11:16:16.997Z,4.73
2017-12-14T11:18:44.586Z,3.30
2017-12-14T11:21:12.896Z,3.80
2017-12-14T11:23:41.242Z,2.13
2017-12-14T11:26:08.820Z,3.83
2017-12-14T11:28:36.462Z,7.93
2017-12-14T11:31:04.000Z,2.20
2017-12-14T11:33:31.578Z,5.30
2017-12-14T11:35:59.120Z,2.63
2017-12-14T11:38:26.670Z,2.30
2017-12-14T11:40:54.237Z,5.23
2017-12-14T11:43:21.784Z,3.57
2017-12-14T11:45:49.517Z,6.13
2017-12-14T11:48:17.064Z,4.47
2017-12-14T11:50:44.643Z,7.40
2017-12-14T11:53:12.401Z,4.13
2017-12-14T11:55:39.952Z,3.17
2017-12-14T11:58:07.529Z,3.00
2017-12-14T12:00:35.107Z,2.80
2017-12-14T12:03:03.424Z,10.97
2017-12-14T12:05:30.990Z,2.80
2017-12-14T12:07:58.638Z,12.27
2017-12-14T12:10:26.193Z,3.33
2017-12-14T12:12:53.753Z,5.33
2017-12-14T12:15:21.341Z,6.37
2017-12-14T12:17:49.060Z,6.77
2017-12-14T12:20:16.649Z,8.67
2017-12-14T12:22:44.202Z,5.80
2017-12-14T12:25:11.766Z,4.70
2017-12-14T12:27:39.317Z,5.27
2017-12-14T12:30:06.909Z,3.93
2017-12-14T12:32:34.464Z,5.03
2017-12-14T12:35:02.670Z,6.73
2017-12-14T12:37:30.982Z,12.13
2017-12-14T12:39:58.962Z,3.20
2017-12-14T12:42:26.525Z,4.20
2017-12-14T12:44:54.096Z,1.57
2017-12-14T12:47:22.751Z,2.60
2017-12-14T12:49:51.050Z,6.97
2017-12-14T12:52:20.192Z,3.03
2017-12-14T12:54:48.383Z,1.70
2017-12-14T12:57:16.711Z,2.13
2017-12-14T12:59:44.270Z,3.90
2017-12-14T13:02:11.926Z,5.70
2017-12-14T13:04:39.927Z,4.00
2017-12-14T13:07:08.195Z,2.70
2017-12-14T13:09:36.787Z,7.27
2017-12-14T13:12:04.362Z,3.20
2017-12-14T13:14:32.018Z,3.07
2017-12-14T13:17:00.297Z,5.47
2017-12-14T13:19:27.893Z,9.77
2017-12-14T13:21:56.201Z,4.87
2017-12-14T13:24:23.769Z,1.97
2017-12-14T13:26:51.876Z,9.00
2017-12-14T13:29:21.629Z,4.37
2017-12-14T13:31:50.277Z,6.37
2017-12-14T13:34:18.625Z,4.70
2017-12-14T13:36:46.193Z,2.00
2017-12-14T13:39:13.739Z,4.63
2017-12-14T13:41:41.366Z,7.03
2017-12-14T13:44:09.698Z,7.20
2017-12-14T13:46:37.924Z,8.73
2017-12-14T13:49:06.265Z,4.80
2017-12-14T13:51:33.821Z,8.67
2017-12-14T13:54:01.439Z,5.30
2017-12-14T13:56:28.981Z,11.03
2017-12-14T13:58:57.593Z,4.80
2017-12-14T14:01:25.141Z,4.33
2017-12-14T14:03:53.212Z,5.50
2017-12-14T14:06:20.770Z,6.40
2017-12-14T14:08:48.338Z,6.47
2017-12-14T14:11:15.967Z,5.20
2017-12-14T14:13:43.513Z,7.10
2017-12-14T14:16:11.149Z,3.33
2017-12-14T14:18:38.701Z,9.67
2017-12-14T14:21:07.517Z,6.07
2017-12-14T14:23:35.085Z,3.53
2017-12-14T14:26:02.668Z,4.37
2017-12-14T14:28:31.006Z,5.60
2017-12-14T14:30:58.573Z,8.93
2017-12-14T14:33:26.139Z,10.70
2017-12-14T14:35:53.701Z,3.33
2017-12-14T14:38:21.262Z,3.93
2017-12-14T14:40:48.846Z,4.40
2017-12-14T14:43:17.214Z,2.17
2017-12-14T14:45:44.773Z,6.60
2017-12-14T14:48:14.339Z,8.47
2017-12-14T14:50:41.994Z,5.93
2017-12-14T14:53:09.558Z,7.33
2017-12-14T14:55:37.131Z,7.13
2017-12-14T14:58:04.997Z,6.33
2017-12-14T15:00:32.541Z,7.83
2017-12-14T15:03:00.119Z,10.27
2017-12-14T15:05:36.031Z,6.83
2017-12-14T15:08:04.342Z,3.87
2017-12-14T15:10:31.908Z,3.50
2017-12-14T15:13:00.178Z,3.13
2017-12-14T15:15:27.882Z,5.80
2017-12-14T15:17:55.442Z,5.07
2017-12-14T15:20:23.010Z,3.37
2017-12-14T15:22:50.645Z,5.17
2017-12-14T15:25:18.206Z,7.47
2017-12-14T15:27:46.585Z,5.70
2017-12-14T15:30:14.920Z,10.77
2017-12-14T15:32:43.247Z,7.30
2017-12-14T15:35:10.837Z,6.20
2017-12-14T15:37:38.384Z,6.27
2017-12-14T15:40:06.011Z,6.93
2017-12-14T15:42:33.676Z,3.97
2017-12-14T15:45:01.272Z,6.13
2017-12-14T15:47:28.897Z,4.03
2017-12-14T15:49:56.478Z,6.70
2017-12-14T15:52:24.116Z,11.57
2017-12-14T15:54:51.672Z,6.33
2017-12-14T15:57:19.249Z,5.57
2017-12-14T15:59:46.895Z,5.47
2017-12-14T16:02:14.574Z,6.83
2017-12-14T16:04:42.905Z,8.70
2017-12-14T16:07:11.261Z,5.87
2017-12-14T16:09:38.821Z,5.73
2017-12-14T16:12:06.410Z,9.70
2017-12-14T16:14:34.757Z,8.27
2017-12-14T16:17:02.347Z,9.50
2017-12-14T16:19:30.691Z,8.80
2017-12-14T16:21:58.303Z,12.93
2017-12-14T16:24:26.616Z,8.70
2017-12-14T16:26:54.242Z,15.40
2017-12-14T16:29:21.805Z,10.10
2017-12-14T16:31:49.481Z,15.27
2017-12-14T16:34:17.056Z,14.97
2017-12-14T16:36:44.626Z,9.90
2017-12-14T16:39:12.233Z,18.37
2017-12-14T16:41:40.565Z,6.60
2017-12-14T16:44:08.293Z,14.47
2017-12-14T16:46:36.002Z,14.57
2017-12-14T16:49:03.599Z,11.70
2017-12-14T16:51:31.960Z,15.00
2017-12-14T16:53:59.531Z,9.00
2017-12-14T16:56:28.930Z,12.23
2017-12-14T16:58:56.543Z,14.43
2017-12-14T17:01:24.186Z,10.90
2017-12-14T17:03:52.533Z,12.80
2017-12-14T17:06:20.093Z,8.23
2017-12-14T17:08:47.661Z,10.23
2017-12-14T17:11:16.034Z,15.87
2017-12-14T17:13:43.605Z,11.90
2017-12-14T17:16:11.967Z,9.00
2017-12-14T17:18:39.543Z,13.00
2017-12-14T17:21:07.914Z,11.27
2017-12-14T17:23:35.535Z,11.60
2017-12-14T17:26:03.290Z,9.50
2017-12-14T17:28:31.190Z,11.83
2017-12-14T17:30:58.771Z,9.73
2017-12-14T17:33:26.387Z,10.63
2017-12-14T17:35:54.049Z,9.30
2017-12-14T17:38:21.618Z,10.27
2017-12-14T17:40:49.232Z,8.37
2017-12-14T17:43:17.592Z,9.80
2017-12-14T17:45:45.232Z,7.73
2017-12-14T17:48:12.828Z,6.20
2017-12-14T17:50:41.210Z,6.70
2017-12-14T17:53:09.538Z,5.63
2017-12-14T17:55:37.170Z,7.43
2017-12-14T17:58:05.542Z,8.03
2017-12-14T18:00:33.964Z,10.20
2017-12-14T18:03:01.538Z,11.50
2017-12-14T18:05:29.142Z,8.93
2017-12-14T18:07:57.480Z,10.97
2017-12-14T18:10:25.077Z,8.77
2017-12-14T18:12:53.413Z,11.17
2017-12-14T18:15:20.979Z,9.43
2017-12-14T18:17:48.566Z,14.90
2017-12-14T18:20:16.167Z,10.07
2017-12-14T18:22:43.733Z,13.30
2017-12-14T18:25:11.310Z,15.67
2017-12-14T18:27:38.906Z,10.20
2017-12-14T18:30:06.497Z,14.40
2017-12-14T18:32:34.186Z,12.57
2017-12-14T18:35:01.786Z,17.37
2017-12-14T18:37:29.396Z,10.90
2017-12-14T18:39:57.706Z,17.10
2017-12-14T18:42:25.345Z,10.07
2017-12-14T18:44:52.921Z,10.10
2017-12-14T18:47:20.500Z,18.10
2017-12-14T18:49:48.091Z,11.20
2017-12-14T18:52:16.429Z,7.73
2017-12-14T18:54:44.016Z,10.50
2017-12-14T18:57:11.605Z,8.00
2017-12-14T18:59:40.006Z,11.07
2017-12-14T19:02:07.590Z,8.17
2017-12-14T19:04:35.165Z,11.63
2017-12-14T19:07:02.883Z,7.63
2017-12-14T19:09:30.495Z,11.50
2017-12-14T19:11:58.099Z,11.40
2017-12-14T19:14:26.439Z,9.73
2017-12-14T19:16:54.006Z,8.07
2017-12-14T19:19:27.642Z,11.10
2017-12-14T19:21:58.177Z,9.63
2017-12-14T19:24:28.180Z,11.90
2017-12-14T19:26:59.829Z,12.70
2017-12-14T19:29:32.241Z,9.73
2017-12-14T19:32:00.231Z,6.03
2017-12-14T19:34:34.397Z,7.70
2017-12-14T19:37:03.206Z,8.60
2017-12-14T19:39:33.256Z,6.30
2017-12-14T19:42:02.918Z,10.60
2017-12-14T19:44:33.848Z,7.33
2017-12-14T19:47:05.542Z,6.47
2017-12-14T19:49:35.479Z,10.20
2017-12-14T19:52:03.042Z,9.30
2017-12-14T19:54:33.636Z,10.80
2017-12-14T19:57:08.641Z,11.87
2017-12-14T19:59:40.029Z,7.90
2017-12-14T20:02:10.074Z,11.43
2017-12-14T20:04:40.106Z,11.53
2017-12-14T20:07:08.619Z,11.27
2017-12-14T20:09:42.259Z,9.60
2017-12-14T20:12:09.913Z,10.10
2017-12-14T20:14:37.476Z,9.97
2017-12-14T20:17:13.474Z,10.00
2017-12-14T20:19:44.467Z,14.13
2017-12-14T20:22:13.681Z,10.63
2017-12-14T20:24:47.769Z,10.77
2017-12-14T20:27:21.044Z,9.97
2017-12-14T20:29:49.517Z,12.73
2017-12-14T20:32:20.333Z,10.77
2017-12-14T20:34:47.953Z,10.33
2017-12-14T20:37:23.057Z,8.17
2017-12-14T20:39:54.180Z,10.20
2017-12-14T20:42:24.842Z,13.03
2017-12-14T20:44:54.932Z,11.70
2017-12-14T20:47:27.808Z,12.53
2017-12-14T20:49:57.938Z,9.53
2017-12-14T20:52:27.062Z,10.03
2017-12-14T20:54:57.644Z,15.10
2017-12-14T20:57:25.445Z,12.17
2017-12-14T21:00:00.319Z,9.70
2017-12-14T21:02:34.223Z,12.70
2017-12-14T21:05:06.051Z,6.27
2017-12-14T21:07:34.780Z,7.00
2017-12-14T21:10:07.726Z,7.63
2017-12-14T21:12:38.340Z,11.40
2017-12-14T21:15:07.444Z,10.77
2017-12-14T21:17:41.707Z,14.33
2017-12-14T21:20:09.325Z,6.43
2017-12-14T21:22:36.917Z,11.10
2017-12-14T21:25:05.306Z,9.10
2017-12-14T21:27:32.880Z,10.87
2017-12-14T21:30:00.634Z,9.37
2017-12-14T21:32:28.295Z,9.87
2017-12-14T21:34:55.905Z,17.97
2017-12-14T21:37:23.474Z,11.40
2017-12-14T21:39:51.125Z,13.23
2017-12-14T21:42:18.709Z,13.40
2017-12-14T21:44:46.310Z,10.63
2017-12-14T21:47:13.988Z,10.60
2017-12-14T21:49:41.565Z,15.13
2017-12-14T21:52:09.183Z,8.50
2017-12-14T21:54:36.854Z,16.40
2017-12-14T21:57:05.190Z,9.33
2017-12-14T21:59:33.606Z,13.30
2017-12-14T22:02:01.212Z,12.63
2017-12-14T22:04:28.825Z,15.70
2017-12-14T22:06:57.285Z,16.00
2017-12-14T22:09:25.724Z,12.00
2017-12-14T22:11:53.346Z,17.53
2017-12-14T22:14:21.662Z,11.80
2017-12-14T22:16:49.238Z,12.50
2017-12-14T22:19:16.827Z,13.10
2017-12-14T22:21:44.388Z,8.20
2017-12-14T22:24:12.742Z,10.90
2017-12-14T22:26:40.455Z,7.83
2017-12-14T22:29:08.838Z,12.50
2017-12-14T22:31:36.522Z,9.40
2017-12-14T22:34:04.965Z,10.83
2017-12-14T22:36:33.304Z,12.77
2017-12-14T22:39:00.906Z,12.10
2017-12-14T22:41:29.253Z,8.53
2017-12-14T22:43:56.817Z,11.47
2017-12-14T22:46:24.442Z,12.53
2017-12-14T22:48:52.035Z,16.17
2017-12-14T22:51:19.614Z,12.87
2017-12-14T22:53:47.185Z,11.10
2017-12-14T22:56:14.770Z,9.40
2017-12-14T22:58:42.317Z,9.20
2017-12-14T23:01:10.646Z,6.87
2017-12-14T23:03:38.191Z,8.40
2017-12-14T23:06:05.835Z,8.23
2017-12-14T23:08:33.373Z,10.43
2017-12-14T23:11:01.721Z,10.63
2017-12-14T23:13:29.437Z,16.30
2017-12-14T23:15:56.984Z,13.30
2017-12-14T23:18:25.327Z,15.43
2017-12-14T23:20:52.990Z,15.20
2017-12-14T23:23:20.575Z,18.30
2017-12-14T23:25:48.377Z,14.90
2017-12-14T23:28:15.941Z,15.43
2017-12-14T23:30:43.492Z,19.30
2017-12-14T23:33:11.087Z,14.67
2017-12-14T23:35:38.649Z,17.80
2017-12-14T23:38:06.233Z,22.60
2017-12-14T23:40:33.811Z,18.80
2017-12-14T23:43:02.147Z,19.37
2017-12-14T23:45:29.729Z,13.93
2017-12-14T23:47:57.316Z,14.10
2017-12-14T23:50:25.681Z,15.40
2017-12-14T23:52:54.002Z,20.50
2017-12-14T23:55:21.570Z,14.33
2017-12-14T23:57:49.120Z,15.90
